Time;durP1;ratioP1;P1;durP2;ratioP2;P2;SDS_P1;SDS_P2;PMS_P1;PMS_P2;Temp;Humidity;BMP_temperature;BMP_pressure;BME280_temperature;BME280_humidity;BME280_pressure;Samples;Min_cycle;Max_cycle;Signal;HPM_P1;HPM_P2
2023/10/15 00:00:46;;;;;;;131.02;125.40;;;;;;;14.03;55.60;101757.66;4950149;29;20027;-73
2023/10/15 00:03:11;;;;;;;134.57;128.73;;;;;;;14.01;55.67;101757.94;4949176;28;20051;-73
2023/10/15 00:05:37;;;;;;;129.57;123.93;;;;;;;14.01;55.37;101754.38;4947275;29;20768;-72
2023/10/15 00:08:02;;;;;;;128.77;123.03;;;;;;;14.00;55.55;101761.69;4945788;29;20047;-73
2023/10/15 00:10:30;;;;;;;131.75;125.95;;;;;;;13.98;55.66;101768.44;4949431;29;20106;-73
2023/10/15 00:12:57;;;;;;;134.60;128.90;;;;;;;13.97;55.63;101774.94;4946694;28;20051;-74
2023/10/15 00:15:25;;;;;;;130.98;125.38;;;;;;;13.96;55.43;101762.41;4950323;28;20294;-73
2023/10/15 00:17:58;;;;;;;141.43;134.90;;;;;;;13.94;55.79;101761.84;4949230;28;20028;-74
2023/10/15 00:20:26;;;;;;;123.97;118.13;;;;;;;13.93;55.52;101744.69;4949301;29;20043;-72
2023/10/15 00:22:52;;;;;;;127.70;122.13;;;;;;;13.91;55.70;101738.72;4951088;29;20039;-72
2023/10/15 00:25:19;;;;;;;130.85;125.30;;;;;;;13.91;55.80;101743.28;4949907;29;20424;-73
2023/10/15 00:27:52;;;;;;;127.72;122.03;;;;;;;13.90;55.75;101739.75;4947775;28;20039;-75
2023/10/15 00:30:19;;;;;;;126.82;121.40;;;;;;;13.90;55.83;101730.78;4949100;29;20062;-74
2023/10/15 00:32:46;;;;;;;123.50;118.13;;;;;;;13.88;55.41;101739.16;4948255;29;20479;-73
2023/10/15 00:35:13;;;;;;;136.75;130.85;;;;;;;13.88;55.76;101731.03;4948120;29;20582;-74
2023/10/15 00:37:51;;;;;;;128.35;122.43;;;;;;;13.87;55.61;101734.00;4948483;28;20054;-73
2023/10/15 00:40:19;;;;;;;126.50;120.97;;;;;;;13.85;55.67;101737.75;4947441;29;20071;-71
2023/10/15 00:42:47;;;;;;;126.95;121.40;;;;;;;13.84;56.00;101733.41;4947519;28;20034;-73
2023/10/15 00:45:20;;;;;;;128.60;122.45;;;;;;;13.84;55.81;101738.84;4948588;28;20054;-73
2023/10/15 00:48:07;;;;;;;124.32;119.00;;;;;;;13.83;55.79;101737.19;4948152;29;20038;-73
2023/10/15 00:50:38;;;;;;;129.20;123.50;;;;;;;13.82;55.86;101734.72;4944452;29;21994;-73
2023/10/15 00:53:21;;;;;;;131.20;125.72;;;;;;;13.80;55.90;101720.53;4950626;29;20031;-72
2023/10/15 00:55:53;;;;;;;124.57;119.03;;;;;;;13.80;56.17;101717.81;4950309;29;20383;-72
2023/10/15 00:58:30;;;;;;;128.98;123.38;;;;;;;13.79;55.87;101724.34;4948158;29;20443;-72
2023/10/15 01:01:00;;;;;;;124.33;118.80;;;;;;;13.77;55.90;101719.13;4949064;28;20399;-73
2023/10/15 01:03:31;;;;;;;128.38;122.82;;;;;;;13.77;56.15;101715.59;4945917;29;20047;-73
2023/10/15 01:06:00;;;;;;;126.88;121.43;;;;;;;13.75;56.30;101715.81;4949372;29;20459;-73
2023/10/15 01:08:34;;;;;;;126.22;120.63;;;;;;;13.76;56.36;101713.97;4949666;29;20399;-72
2023/10/15 01:11:19;;;;;;;128.70;123.15;;;;;;;13.74;56.09;101710.66;4944788;29;20039;-73
2023/10/15 01:13:45;;;;;;;122.65;117.38;;;;;;;13.73;56.34;101708.97;4945387;29;20035;-74
2023/10/15 01:16:15;;;;;;;123.38;117.97;;;;;;;13.71;55.92;101711.97;4947369;29;20535;-73
2023/10/15 01:18:41;;;;;;;129.18;123.40;;;;;;;13.71;56.40;101711.97;4945240;29;20039;-72
2023/10/15 01:21:09;;;;;;;128.05;122.55;;;;;;;13.70;56.07;101709.47;4944385;29;20043;-73
2023/10/15 01:26:14;;;;;;;131.20;125.47;;;;;;;13.68;56.17;101717.03;4946872;29;20053;-74
2023/10/15 01:28:42;;;;;;;120.80;115.43;;;;;;;13.67;56.09;101718.91;4948941;29;20420;-72
2023/10/15 01:31:08;;;;;;;124.18;118.78;;;;;;;13.67;56.11;101721.63;4946704;28;20465;-72
2023/10/15 01:33:46;;;;;;;121.00;115.72;;;;;;;13.66;56.15;101714.56;4948178;29;20094;-74
2023/10/15 01:36:26;;;;;;;126.65;121.22;;;;;;;13.64;56.15;101725.66;4945881;28;20038;-73
2023/10/15 01:38:54;;;;;;;125.05;119.47;;;;;;;13.64;56.21;101711.25;4943947;29;20555;-74
2023/10/15 01:41:22;;;;;;;127.22;121.43;;;;;;;13.62;56.22;101716.91;4949499;28;20039;-73
2023/10/15 01:43:48;;;;;;;139.38;132.95;;;;;;;13.61;56.20;101711.75;4945039;29;20066;-72
2023/10/15 01:46:24;;;;;;;124.28;118.90;;;;;;;13.60;56.25;101708.19;4945710;29;20043;-76
2023/10/15 01:48:50;;;;;;;123.00;117.65;;;;;;;13.58;56.11;101713.03;4942297;28;20044;-72
2023/10/15 01:51:16;;;;;;;124.13;118.32;;;;;;;13.58;56.18;101713.03;4946875;29;20042;-75
2023/10/15 01:53:45;;;;;;;120.80;115.43;;;;;;;13.57;56.17;101713.28;4949626;28;20534;-74
2023/10/15 01:56:17;;;;;;;;;;;;;;;13.56;56.29;101708.91;4942341;28;20032;-73
2023/10/15 01:58:44;;;;;;;117.28;111.97;;;;;;;13.53;56.33;101710.22;4939562;29;20271;-73
2023/10/15 02:01:31;;;;;;;124.93;119.55;;;;;;;13.50;56.07;101705.25;4946758;29;20122;-73
2023/10/15 02:03:57;;;;;;;126.90;121.47;;;;;;;13.50;56.22;101712.56;4948522;28;20700;-72
2023/10/15 02:06:25;;;;;;;117.47;112.38;;;;;;;13.49;56.36;101708.22;4948605;29;20039;-74
2023/10/15 02:08:51;;;;;;;122.63;117.32;;;;;;;13.49;56.35;101709.03;4946490;28;20058;-73
2023/10/15 02:11:21;;;;;;;129.65;124.00;;;;;;;13.49;56.33;101719.06;4946252;29;20467;-73
2023/10/15 02:13:48;;;;;;;122.90;117.30;;;;;;;13.48;56.57;101714.69;4946737;28;20106;-73
2023/10/15 02:16:18;;;;;;;124.70;119.32;;;;;;;13.48;56.53;101717.41;4948090;29;20096;-73
2023/10/15 02:18:45;;;;;;;136.77;130.82;;;;;;;13.47;56.67;101711.16;4946013;29;20043;-74
2023/10/15 02:21:19;;;;;;;124.72;119.35;;;;;;;13.46;56.51;101712.25;4946505;28;20058;-74
2023/10/15 02:23:50;;;;;;;124.93;119.22;;;;;;;13.45;56.38;101712.47;4946622;29;20042;-74
2023/10/15 02:26:23;;;;;;;126.07;120.65;;;;;;;13.44;56.55;101708.13;4942977;29;20035;-73
2023/10/15 02:28:53;;;;;;;117.38;112.25;;;;;;;13.42;56.58;101709.16;4946823;29;20071;-74
2023/10/15 02:31:22;;;;;;;122.90;117.43;;;;;;;13.41;56.33;101714.84;4945362;29;20035;-74
2023/10/15 02:33:49;;;;;;;121.57;116.30;;;;;;;13.41;56.27;101712.13;4948794;28;20031;-73
2023/10/15 02:36:23;;;;;;;132.23;126.53;;;;;;;13.40;56.73;101713.16;4947632;29;20475;-73
2023/10/15 02:38:52;;;;;;;117.45;112.28;;;;;;;13.38;56.50;101710.72;4946320;29;20472;-75
2023/10/15 02:41:19;;;;;;;121.60;116.35;;;;;;;13.38;56.44;101710.72;4946543;29;20065;-73
2023/10/15 02:43:56;;;;;;;119.75;114.60;;;;;;;13.38;56.25;101708.00;4943329;29;20031;-74
2023/10/15 02:46:23;;;;;;;121.38;116.13;;;;;;;13.38;56.59;101699.00;4944863;29;20480;-73
2023/10/15 02:48:53;;;;;;;122.15;116.82;;;;;;;13.37;56.69;101700.09;4945359;28;20087;-75
2023/10/15 02:51:23;;;;;;;123.65;118.35;;;;;;;13.36;56.46;101707.41;4946536;28;20031;-75
2023/10/15 02:53:54;;;;;;;111.75;106.85;;;;;;;13.36;56.25;101714.72;4946140;28;20127;-76
2023/10/15 02:56:20;;;;;;;117.28;112.25;;;;;;;13.36;56.46;101715.56;4936601;29;20054;-74
2023/10/15 02:58:46;;;;;;;121.40;116.18;;;;;;;13.35;56.42;101708.44;4948420;29;20108;-73
2023/10/15 03:01:25;;;;;;;115.70;110.70;;;;;;;13.35;56.44;101705.75;4948005;28;20120;-73
2023/10/15 03:03:52;;;;;;;111.93;107.07;;;;;;;13.34;56.46;101711.41;4950939;29;20383;-73
2023/10/15 03:06:34;;;;;;;118.32;113.20;;;;;;;13.32;56.83;101738.78;4950824;29;20145;-73
2023/10/15 03:09:00;;;;;;;114.45;109.53;;;;;;;13.31;56.38;101744.47;4951332;29;20031;-73
2023/10/15 03:11:31;;;;;;;114.07;109.20;;;;;;;13.29;56.77;101733.84;4949131;29;20580;-73
2023/10/15 03:14:00;;;;;;;115.47;110.57;;;;;;;13.28;56.44;101736.78;4949625;29;20031;-72
2023/10/15 03:16:30;;;;;;;124.13;118.63;;;;;;;13.27;56.92;101746.81;4964839;28;20046;-73
2023/10/15 03:18:56;;;;;;;115.05;109.88;;;;;;;13.26;56.41;101750.56;4951065;29;20039;-72
2023/10/15 03:21:25;;;;;;;118.18;113.13;;;;;;;13.27;56.55;101751.41;4946992;29;20443;-73
2023/10/15 03:23:57;;;;;;;;;;;;;;;13.26;56.79;101756.00;4948173;29;20032;-72
2023/10/15 03:26:24;;;;;;;112.45;107.35;;;;;;;13.25;56.51;101753.50;4951279;28;20359;-73
2023/10/15 03:28:54;;;;;;;116.03;110.95;;;;;;;13.24;56.72;101752.69;4947819;28;20440;-72
2023/10/15 03:31:25;;;;;;;115.75;110.78;;;;;;;13.24;56.48;101743.72;4948117;29;20119;-72
2023/10/15 03:36:26;;;;;;;112.00;106.38;;;;;;;13.23;56.50;101742.91;4950399;29;20074;-76
2023/10/15 03:38:51;;;;;;;117.50;112.28;;;;;;;13.21;56.56;101756.69;4962024;28;20035;-73
2023/10/15 03:41:27;;;;;;;121.50;116.32;;;;;;;13.21;57.01;101748.56;4932886;29;20039;-73
2023/10/15 03:43:54;;;;;;;116.90;111.60;;;;;;;13.22;56.75;101765.66;4936996;29;20040;-73
2023/10/15 03:46:19;;;;;;;120.57;115.32;;;;;;;13.22;56.85;101776.50;4945220;29;20035;-74
2023/10/15 03:48:48;;;;;;;120.68;115.32;;;;;;;13.21;56.75;101789.25;4950385;28;20442;-72
2023/10/15 03:51:20;;;;;;;110.35;105.53;;;;;;;13.20;56.69;101798.47;4954795;29;20138;-75
2023/10/15 03:53:49;;;;;;;114.35;109.22;;;;;;;13.21;56.85;101785.72;4953175;29;20463;-73
2023/10/15 03:56:19;;;;;;;114.53;109.45;;;;;;;13.21;56.95;101769.44;4949415;28;20035;-74
2023/10/15 03:58:47;;;;;;;117.25;112.10;;;;;;;13.20;56.94;101771.34;4950659;28;20035;-74
2023/10/15 04:03:42;;;;;;;117.95;112.53;;;;;;;13.20;56.73;101789.47;4945186;29;20056;-74
2023/10/15 04:06:09;;;;;;;113.28;108.35;;;;;;;13.19;56.98;101791.38;4947905;29;20480;-74
2023/10/15 04:08:34;;;;;;;111.88;107.07;;;;;;;13.19;56.98;101794.06;4943315;29;20095;-73
2023/10/15 04:11:00;;;;;;;113.38;108.47;;;;;;;13.18;57.02;101789.72;4938643;29;20031;-74
2023/10/15 04:13:26;;;;;;;109.80;104.93;;;;;;;13.18;56.78;101783.47;4940654;28;20036;-73
2023/10/15 04:15:54;;;;;;;110.07;105.15;;;;;;;13.17;56.84;101793.47;4936196;29;20028;-75
2023/10/15 04:18:23;;;;;;;109.88;105.07;;;;;;;13.18;57.03;101797.03;4947945;29;20538;-73
2023/10/15 04:20:49;;;;;;;110.15;105.25;;;;;;;13.17;56.96;101798.91;4949650;28;20145;-74
2023/10/15 04:23:30;;;;;;;113.47;108.65;;;;;;;13.17;57.06;101787.22;4949608;28;20024;-74
2023/10/15 04:25:57;;;;;;;112.22;107.32;;;;;;;13.16;56.85;101777.44;4944280;29;20490;-74
2023/10/15 04:28:25;;;;;;;115.93;110.50;;;;;;;13.17;57.06;101779.09;4936384;29;20035;-74
2023/10/15 04:30:51;;;;;;;118.72;113.45;;;;;;;13.15;57.17;101778.50;4947696;29;20066;-73
2023/10/15 04:33:19;;;;;;;117.80;112.75;;;;;;;13.16;57.04;101780.16;4944991;29;20407;-74
2023/10/15 04:35:48;;;;;;;118.60;113.05;;;;;;;13.13;57.19;101770.63;4936185;29;20057;-74
2023/10/15 04:38:21;;;;;;;;;;;;;;;13.13;57.05;101762.47;4942066;29;20042;-73
2023/10/15 04:43:27;;;;;;;107.57;102.95;;;;;;;13.09;57.22;101755.03;4947745;28;20047;-74
2023/10/15 04:45:54;;;;;;;106.05;101.40;;;;;;;13.09;57.23;101757.75;4935803;29;20492;-76
2023/10/15 04:48:26;;;;;;;111.95;106.97;;;;;;;13.08;56.89;101756.94;4941928;29;20039;-74
2023/10/15 04:50:52;;;;;;;116.40;111.32;;;;;;;13.08;57.13;101753.38;4945266;29;20101;-75
2023/10/15 04:55:51;;;;;;;115.72;110.78;;;;;;;13.08;57.56;101751.50;4946022;28;20039;-74
2023/10/15 04:58:17;;;;;;;117.20;112.22;;;;;;;13.08;57.08;101751.50;4934604;29;20039;-75
2023/10/15 05:00:48;;;;;;;117.45;112.25;;;;;;;13.08;57.24;101756.94;4946086;29;20038;-74
2023/10/15 05:03:14;;;;;;;117.15;112.05;;;;;;;13.08;57.38;101747.94;4927363;29;20044;-76
2023/10/15 05:05:43;;;;;;;117.10;112.10;;;;;;;13.08;57.34;101753.38;4950122;29;20125;-75
2023/10/15 05:08:12;;;;;;;;;;;;;;;13.06;57.43;101755.50;4938120;28;20028;-73
2023/10/15 05:10:44;;;;;;;113.00;107.90;;;;;;;13.05;57.25;101756.56;4935297;29;19919;-77
2023/10/15 05:13:13;;;;;;;105.38;100.80;;;;;;;13.04;57.70;101758.44;4946322;29;20396;-73
2023/10/15 05:15:42;;;;;;;112.13;107.22;;;;;;;13.04;57.44;101769.28;4943458;29;20036;-75
2023/10/15 05:18:08;;;;;;;113.88;109.05;;;;;;;13.03;57.39;101788.50;4938340;29;20047;-74
2023/10/15 05:20:33;;;;;;;112.00;106.90;;;;;;;13.03;57.48;101819.19;4935869;29;20154;-74
2023/10/15 05:22:59;;;;;;;119.70;114.22;;;;;;;13.02;57.42;101828.38;4941472;29;20031;-74
2023/10/15 05:25:24;;;;;;;113.85;108.90;;;;;;;13.02;57.46;101847.34;4950440;28;20566;-74
2023/10/15 05:27:50;;;;;;;109.72;104.60;;;;;;;13.02;57.28;101843.81;4935340;29;20042;-72
2023/10/15 05:30:15;;;;;;;116.18;111.03;;;;;;;13.01;57.19;101821.31;4949253;29;20451;-73
2023/10/15 05:32:43;;;;;;;111.75;106.88;;;;;;;13.00;57.57;101816.91;4949225;29;20023;-74
2023/10/15 05:35:09;;;;;;;111.63;106.63;;;;;;;12.99;57.35;101824.22;4940774;28;20410;-73
2023/10/15 05:37:36;;;;;;;114.68;109.82;;;;;;;12.98;57.29;101825.31;4942676;29;20048;-74
2023/10/15 05:40:03;;;;;;;119.05;113.95;;;;;;;12.99;57.44;101832.38;4933703;29;20094;-75
2023/10/15 05:42:29;;;;;;;121.78;116.57;;;;;;;12.98;57.51;101814.47;4938879;29;20035;-74
2023/10/15 05:44:56;;;;;;;117.22;112.20;;;;;;;12.99;57.64;101818.00;4946659;29;20046;-73
2023/10/15 05:47:21;;;;;;;111.70;106.93;;;;;;;12.97;57.54;101815.50;4934996;29;20074;-74
2023/10/15 05:49:48;;;;;;;110.03;105.28;;;;;;;12.98;57.35;101813.63;4937107;29;20058;-75
2023/10/15 05:52:13;;;;;;;110.32;105.53;;;;;;;12.98;57.54;101808.22;4947673;29;20043;-74
2023/10/15 05:54:38;;;;;;;110.90;106.13;;;;;;;12.98;57.34;101803.59;4936096;29;20499;-76
2023/10/15 05:57:06;;;;;;;120.18;114.97;;;;;;;12.96;57.45;101826.59;4951591;29;20086;-73
2023/10/15 05:59:35;;;;;;;119.53;114.40;;;;;;;12.95;57.54;101809.50;4948125;29;20038;-74
2023/10/15 06:02:02;;;;;;;111.78;106.93;;;;;;;12.95;57.73;101812.22;4933047;29;20098;-75
2023/10/15 06:04:27;;;;;;;116.50;111.55;;;;;;;12.94;57.70;101817.84;4935757;29;20364;-78
2023/10/15 06:06:53;;;;;;;116.15;111.03;;;;;;;12.94;57.82;101824.09;4946018;29;20278;-73
2023/10/15 06:09:19;;;;;;;109.68;105.00;;;;;;;12.94;57.69;101837.66;4934740;29;20279;-75
2023/10/15 06:11:45;;;;;;;110.47;105.43;;;;;;;12.94;57.32;101837.66;4940363;29;20117;-73
2023/10/15 06:14:10;;;;;;;115.32;110.18;;;;;;;12.93;57.49;101844.16;4941635;29;20123;-73
2023/10/15 06:16:36;;;;;;;113.15;108.35;;;;;;;12.93;57.67;101849.59;4934903;29;20043;-72
2023/10/15 06:19:02;;;;;;;115.20;110.15;;;;;;;12.92;57.40;101834.34;4937227;29;20077;-74
2023/10/15 06:21:27;;;;;;;115.75;110.82;;;;;;;12.92;57.50;101837.06;4948192;29;20066;-73
2023/10/15 06:23:53;;;;;;;114.70;109.80;;;;;;;12.92;57.78;101836.25;4944461;29;20042;-74
2023/10/15 06:26:18;;;;;;;110.82;106.07;;;;;;;12.92;57.71;101830.81;4933480;29;20035;-73
2023/10/15 06:28:44;;;;;;;117.50;112.30;;;;;;;12.92;57.75;101838.94;4939496;29;20046;-74
2023/10/15 06:31:09;;;;;;;111.50;106.63;;;;;;;12.91;57.72;101838.13;4948302;29;20391;-73
2023/10/15 06:33:40;;;;;;;109.60;104.95;;;;;;;12.91;57.70;101832.72;4941157;29;20082;-74
2023/10/15 06:36:06;;;;;;;115.53;110.32;;;;;;;12.91;57.73;101837.31;4936204;29;20032;-74
2023/10/15 06:38:31;;;;;;;113.65;108.70;;;;;;;12.90;57.80;101835.63;4945352;29;20048;-74
2023/10/15 06:40:57;;;;;;;112.30;107.47;;;;;;;12.90;57.59;101839.19;4934150;29;20040;-73
2023/10/15 06:43:23;;;;;;;118.20;113.20;;;;;;;12.90;57.79;101838.34;4942019;29;20480;-74
2023/10/15 06:45:50;;;;;;;112.90;108.07;;;;;;;12.89;57.36;101832.09;4933990;29;20031;-76
2023/10/15 06:48:16;;;;;;;112.88;108.13;;;;;;;12.88;57.52;101830.47;4944299;29;20075;-73
2023/10/15 06:50:41;;;;;;;116.78;111.85;;;;;;;12.87;57.59;101812.53;4943751;29;20396;-73
2023/10/15 06:53:06;;;;;;;120.20;115.05;;;;;;;12.85;57.79;101828.22;4937309;29;20550;-72
2023/10/15 06:55:33;;;;;;;114.78;109.63;;;;;;;12.84;57.51;101820.31;4939098;29;20063;-74
2023/10/15 06:57:59;;;;;;;112.45;107.55;;;;;;;12.84;57.20;101836.56;4943479;29;20039;-73
2023/10/15 07:00:24;;;;;;;114.22;109.40;;;;;;;12.82;57.59;101844.94;4933137;29;20039;-74
2023/10/15 07:02:51;;;;;;;118.38;113.40;;;;;;;12.83;57.42;101848.50;4945891;29;20122;-72
2023/10/15 07:05:20;;;;;;;110.68;105.97;;;;;;;12.81;57.72;101853.31;4935130;29;20515;-74
2023/10/15 07:07:45;;;;;;;124.05;118.75;;;;;;;12.81;57.60;101869.59;4946655;28;20079;-72
2023/10/15 07:10:15;;;;;;;113.80;108.78;;;;;;;12.81;57.75;101867.69;4944402;28;20408;-72
2023/10/15 07:12:48;;;;;;;110.35;105.63;;;;;;;12.80;57.42;101876.91;4933963;29;20036;-73
2023/10/15 07:15:15;;;;;;;111.78;106.88;;;;;;;12.80;57.67;101893.16;4943432;29;20047;-74
2023/10/15 07:17:41;;;;;;;115.53;110.63;;;;;;;12.80;57.63;101904.00;4949275;29;20062;-73
2023/10/15 07:20:14;;;;;;;106.95;102.25;;;;;;;12.81;57.51;101915.69;4951454;29;20122;-73
2023/10/15 07:22:41;;;;;;;115.60;110.70;;;;;;;12.80;57.69;101925.69;4949088;29;20044;-72
2023/10/15 07:25:08;;;;;;;116.63;111.63;;;;;;;12.81;57.53;101929.22;4945664;29;20155;-75
2023/10/15 07:27:34;;;;;;;113.15;108.38;;;;;;;12.80;57.73;101920.28;4942774;28;20036;-74
2023/10/15 07:30:00;;;;;;;113.90;109.07;;;;;;;12.80;57.51;101909.44;4933709;29;20036;-74
2023/10/15 07:32:25;;;;;;;119.28;114.07;;;;;;;12.79;57.55;101902.34;4944824;29;20047;-74
2023/10/15 07:34:53;;;;;;;119.50;114.40;;;;;;;12.78;57.48;101900.69;4942093;29;20506;-75
2023/10/15 07:37:19;;;;;;;116.53;111.28;;;;;;;12.77;57.86;101890.88;4948905;29;20395;-75
2023/10/15 07:39:45;;;;;;;119.13;114.03;;;;;;;12.78;57.60;101901.50;4950427;28;20256;-75
2023/10/15 07:42:11;;;;;;;117.20;112.10;;;;;;;12.80;57.58;101914.84;4937089;29;20050;-75
2023/10/15 07:44:36;;;;;;;120.53;115.47;;;;;;;12.80;57.61;101922.13;4945932;29;20091;-75
2023/10/15 07:47:02;;;;;;;115.15;110.07;;;;;;;12.81;57.76;101915.69;4937187;29;20496;-75
2023/10/15 07:49:28;;;;;;;111.72;106.97;;;;;;;12.81;57.60;101929.22;4947246;29;20039;-74
2023/10/15 07:51:54;;;;;;;108.30;103.40;;;;;;;12.81;57.64;101937.38;4935840;29;20050;-74
2023/10/15 07:54:19;;;;;;;116.70;111.57;;;;;;;12.82;57.87;101950.69;4939448;29;20066;-74
2023/10/15 07:56:45;;;;;;;114.10;109.15;;;;;;;12.82;57.65;101955.28;4953032;29;20174;-74
2023/10/15 07:59:10;;;;;;;116.40;111.35;;;;;;;12.83;57.75;101965.09;4953233;29;20078;-75
2023/10/15 08:01:36;;;;;;;111.88;107.00;;;;;;;12.82;57.58;101974.25;4947467;28;20070;-73
2023/10/15 08:04:04;;;;;;;109.85;105.10;;;;;;;12.81;57.96;101967.19;4949731;28;20429;-77
2023/10/15 08:06:29;;;;;;;118.53;113.43;;;;;;;12.78;57.89;101966.59;4949511;28;20039;-75
2023/10/15 08:08:55;;;;;;;112.82;108.00;;;;;;;12.78;57.83;101979.31;4948157;28;20557;-77
2023/10/15 08:11:20;;;;;;;118.57;113.30;;;;;;;12.78;57.74;101979.31;4944004;28;20039;-75
2023/10/15 08:13:45;;;;;;;110.15;105.32;;;;;;;12.77;57.91;101964.09;4954954;28;20032;-74
2023/10/15 08:16:11;;;;;;;116.70;111.60;;;;;;;12.76;57.90;101951.59;4949722;28;20050;-76
2023/10/15 08:18:37;;;;;;;113.03;108.20;;;;;;;12.77;58.07;101958.66;4945566;28;20047;-75
2023/10/15 08:21:02;;;;;;;114.97;110.03;;;;;;;12.77;57.89;101958.66;4963188;28;20185;-76
2023/10/15 08:23:28;;;;;;;116.20;111.07;;;;;;;12.77;57.86;101964.94;4950172;28;20050;-76
2023/10/15 08:25:53;;;;;;;114.97;110.05;;;;;;;12.78;58.12;101980.16;4949879;28;20046;-75
2023/10/15 08:28:19;;;;;;;110.65;105.80;;;;;;;12.81;57.96;101983.47;4953744;28;20470;-75
2023/10/15 08:30:44;;;;;;;111.75;106.95;;;;;;;12.83;58.04;101986.78;4951904;28;20054;-75
2023/10/15 08:33:13;;;;;;;118.80;113.57;;;;;;;12.82;58.00;101993.25;4956666;28;20041;-75
2023/10/15 08:35:40;;;;;;;118.28;112.93;;;;;;;12.83;57.86;101994.91;4938522;28;20046;-75
2023/10/15 08:38:07;;;;;;;116.63;111.65;;;;;;;12.84;57.63;102007.41;4947672;28;20573;-77
2023/10/15 08:40:39;;;;;;;115.25;110.05;;;;;;;12.85;57.68;102006.34;4960602;28;20039;-77
2023/10/15 08:43:13;;;;;;;119.57;114.18;;;;;;;12.85;57.88;102007.19;4949762;28;20036;-74
2023/10/15 08:45:39;;;;;;;114.10;109.20;;;;;;;12.85;57.76;102014.47;4945686;28;20035;-75
2023/10/15 08:48:09;;;;;;;114.20;109.30;;;;;;;12.84;57.80;102010.94;4949506;28;20395;-77
2023/10/15 08:50:38;;;;;;;117.10;112.05;;;;;;;12.84;57.91;102027.22;4933816;28;20126;-75
2023/10/15 08:53:06;;;;;;;111.47;106.75;;;;;;;12.85;57.77;102030.75;4949297;28;20530;-74
2023/10/15 08:55:34;;;;;;;115.20;110.13;;;;;;;12.84;57.88;102029.91;4951578;28;20066;-77
2023/10/15 08:58:00;;;;;;;106.20;101.65;;;;;;;12.85;57.94;102039.72;4949839;28;20045;-77
2023/10/15 09:00:25;;;;;;;118.70;113.47;;;;;;;12.86;57.82;102043.25;4948588;28;20053;-75
2023/10/15 09:02:56;;;;;;;112.40;107.55;;;;;;;12.86;57.89;102040.56;4948189;28;20139;-76
2023/10/15 09:05:24;;;;;;;112.43;107.57;;;;;;;12.86;58.00;102043.25;4950191;28;20043;-76
2023/10/15 09:07:54;;;;;;;112.60;107.75;;;;;;;12.86;58.01;102054.94;4948889;28;20451;-78
2023/10/15 09:10:20;;;;;;;117.90;112.63;;;;;;;12.86;58.04;102054.94;4946263;28;20457;-74
2023/10/15 09:12:47;;;;;;;105.28;100.78;;;;;;;12.88;57.99;102052.00;4933885;28;20042;-77
2023/10/15 09:15:19;;;;;;;119.75;114.53;;;;;;;12.87;57.74;102051.16;4930708;28;20110;-76
2023/10/15 09:17:59;;;;;;;120.88;115.47;;;;;;;12.89;57.86;102062.63;4949068;28;20478;-74
2023/10/15 09:20:32;;;;;;;117.22;111.63;;;;;;;12.88;57.88;102071.81;4949526;28;20045;-75
2023/10/15 09:23:00;;;;;;;118.78;113.70;;;;;;;12.89;57.75;102089.72;4948908;28;20043;-74
2023/10/15 09:25:27;;;;;;;112.10;107.22;;;;;;;12.90;57.93;102102.25;4951306;28;20038;-74
2023/10/15 09:27:53;;;;;;;112.45;107.68;;;;;;;12.90;57.89;102109.53;4947027;28;20603;-75
2023/10/15 09:30:26;;;;;;;110.15;105.32;;;;;;;12.87;58.05;102113.53;4947988;28;20487;-76
2023/10/15 09:32:53;;;;;;;109.72;104.97;;;;;;;12.85;58.04;102118.38;4947500;28;20039;-75
2023/10/15 09:35:20;;;;;;;124.25;118.53;;;;;;;12.85;57.86;102117.53;4947324;28;20463;-76
2023/10/15 09:37:46;;;;;;;111.97;106.38;;;;;;;12.85;58.15;102117.53;4944581;28;20071;-76
2023/10/15 09:40:23;;;;;;;114.18;109.25;;;;;;;12.85;58.12;102112.94;4949917;28;20023;-76
2023/10/15 09:42:52;;;;;;;126.30;120.72;;;;;;;12.87;57.86;102115.41;4947769;28;20050;-77
2023/10/15 09:45:18;;;;;;;116.35;111.18;;;;;;;12.84;57.95;102121.28;4947169;28;20043;-76
2023/10/15 09:47:49;;;;;;;116.25;111.18;;;;;;;12.83;58.14;102120.47;4942890;28;20039;-78
2023/10/15 09:50:19;;;;;;;110.50;105.78;;;;;;;12.83;58.26;102133.22;4945696;28;20046;-76
2023/10/15 09:52:55;;;;;;;108.28;103.55;;;;;;;12.84;57.95;102127.53;4945941;28;20046;-77
2023/10/15 09:55:28;;;;;;;113.10;108.18;;;;;;;12.86;58.23;102121.91;4949020;28;20113;-78
2023/10/15 09:57:58;;;;;;;114.00;108.88;;;;;;;12.86;58.02;102111.88;4946993;28;20038;-79
2023/10/15 10:03:33;;;;;;;122.15;116.95;;;;;;;12.89;58.21;102110.59;4947718;28;20066;-77
2023/10/15 10:06:14;;;;;;;117.25;112.25;;;;;;;12.87;57.89;102089.13;4940973;28;20122;-77
2023/10/15 10:09:10;;;;;;;117.80;112.68;;;;;;;12.88;58.13;102081.84;4941207;28;20126;-78
2023/10/15 10:11:35;;;;;;;104.65;100.10;;;;;;;12.88;58.24;102107.06;4936904;28;20110;-75
2023/10/15 10:14:25;;;;;;;112.07;106.93;;;;;;;12.89;58.28;102113.31;4951026;28;20031;-74
2023/10/15 10:16:52;;;;;;;114.22;109.28;;;;;;;12.89;58.17;102116.03;4943679;28;20045;-78
2023/10/15 10:19:18;;;;;;;113.63;108.75;;;;;;;12.89;58.03;102122.28;4946411;28;20479;-76
2023/10/15 10:21:47;;;;;;;116.47;111.28;;;;;;;12.89;58.26;102129.59;4930278;28;20043;-75
2023/10/15 10:24:16;;;;;;;107.30;102.60;;;;;;;12.87;58.14;102148.78;4947387;28;20047;-75
2023/10/15 10:26:42;;;;;;;115.15;109.95;;;;;;;12.86;58.00;102149.84;4949056;28;20031;-74
2023/10/15 10:29:09;;;;;;;113.45;107.93;;;;;;;12.83;57.95;102147.59;4942391;28;20039;-73
2023/10/15 10:31:36;;;;;;;113.60;108.38;;;;;;;12.81;58.39;102155.13;4945935;28;20039;-74
2023/10/15 10:34:03;;;;;;;108.40;103.70;;;;;;;12.79;58.34;102162.63;4947185;28;20046;-73
2023/10/15 10:36:30;;;;;;;111.88;106.97;;;;;;;12.81;58.40;102163.25;4948530;28;20031;-74
2023/10/15 10:39:10;;;;;;;122.55;117.25;;;;;;;12.83;58.55;102158.44;4951305;28;20110;-74
2023/10/15 10:41:40;;;;;;;111.68;106.78;;;;;;;12.84;58.29;102161.97;4946204;28;20039;-74
2023/10/15 10:44:33;;;;;;;115.65;110.70;;;;;;;12.86;58.43;102174.25;4946511;28;20043;-75
2023/10/15 10:47:17;;;;;;;108.82;104.15;;;;;;;12.86;58.75;102168.84;4944479;28;20509;-72
2023/10/15 10:49:52;;;;;;;114.65;109.75;;;;;;;12.86;58.65;102171.53;4945816;28;20058;-73
2023/10/15 10:52:27;;;;;;;111.65;106.55;;;;;;;12.86;58.74;102173.44;4947715;28;20055;-74
2023/10/15 10:54:56;;;;;;;117.38;112.32;;;;;;;12.86;58.70;102176.97;4947327;28;20458;-74
2023/10/15 10:57:31;;;;;;;111.00;106.18;;;;;;;12.86;58.68;102174.25;4947523;28;20093;-75
2023/10/15 10:59:57;;;;;;;104.82;100.32;;;;;;;12.88;58.76;102166.72;4944111;28;20134;-74
2023/10/15 11:02:22;;;;;;;115.10;109.85;;;;;;;12.90;58.55;102172.75;4943611;28;20122;-75
2023/10/15 11:04:48;;;;;;;109.82;105.05;;;;;;;12.92;58.50;102165.22;4943923;28;20122;-74
2023/10/15 11:07:15;;;;;;;116.68;111.68;;;;;;;12.95;58.35;102155.78;4946268;28;20066;-75
2023/10/15 11:09:41;;;;;;;114.40;109.43;;;;;;;12.97;58.36;102151.81;4945465;28;20039;-76
2023/10/15 11:12:09;;;;;;;117.10;111.85;;;;;;;12.98;58.53;102156.19;4948090;28;20490;-78
2023/10/15 11:14:35;;;;;;;121.33;116.07;;;;;;;12.99;58.62;102157.84;4943192;28;20039;-74
2023/10/15 11:17:00;;;;;;;118.68;113.63;;;;;;;13.00;58.50;102153.25;4945547;28;20362;-74